sensor_id;sensor_type;location;lat;lon;timestamp;P1;durP1;ratioP1;P2;durP2;ratioP2
52480;SDS011;38393;52.404;13.532;2023-06-24T00:01:23;7.80;;;4.00;;
52480;SDS011;38393;52.404;13.532;2023-06-24T00:03:49;10.07;;;4.25;;
52480;SDS011;38393;52.404;13.532;2023-06-24T00:06:18;7.68;;;4.43;;
52480;SDS011;38393;52.404;13.532;2023-06-24T00:08:44;8.75;;;4.05;;
52480;SDS011;38393;52.404;13.532;2023-06-24T00:11:10;13.45;;;4.00;;
52480;SDS011;38393;52.404;13.532;2023-06-24T00:13:36;9.65;;;4.65;;
52480;SDS011;38393;52.404;13.532;2023-06-24T00:16:02;8.65;;;3.95;;
52480;SDS011;38393;52.404;13.532;2023-06-24T00:18:27;12.10;;;5.63;;
52480;SDS011;38393;52.404;13.532;2023-06-24T00:20:54;11.10;;;4.78;;
52480;SDS011;38393;52.404;13.532;2023-06-24T00:23:22;10.80;;;5.13;;
52480;SDS011;38393;52.404;13.532;2023-06-24T00:25:54;9.95;;;5.15;;
52480;SDS011;38393;52.404;13.532;2023-06-24T00:28:20;9.40;;;4.85;;
52480;SDS011;38393;52.404;13.532;2023-06-24T00:30:47;13.63;;;5.57;;
52480;SDS011;38393;52.404;13.532;2023-06-24T00:33:13;7.80;;;4.63;;
52480;SDS011;38393;52.404;13.532;2023-06-24T00:35:41;11.95;;;5.75;;
52480;SDS011;38393;52.404;13.532;2023-06-24T00:38:08;11.80;;;5.60;;
52480;SDS011;38393;52.404;13.532;2023-06-24T00:40:34;12.88;;;5.60;;
52480;SDS011;38393;52.404;13.532;2023-06-24T00:43:00;11.48;;;5.18;;
52480;SDS011;38393;52.404;13.532;2023-06-24T00:45:27;12.15;;;5.53;;
52480;SDS011;38393;52.404;13.532;2023-06-24T00:47:52;10.45;;;5.55;;
52480;SDS011;38393;52.404;13.532;2023-06-24T00:50:20;12.90;;;6.25;;
52480;SDS011;38393;52.404;13.532;2023-06-24T00:52:45;12.57;;;6.13;;
52480;SDS011;38393;52.404;13.532;2023-06-24T00:55:12;14.43;;;6.65;;
52480;SDS011;38393;52.404;13.532;2023-06-24T00:57:41;15.70;;;7.43;;
52480;SDS011;38393;52.404;13.532;2023-06-24T01:00:08;15.38;;;6.80;;
52480;SDS011;38393;52.404;13.532;2023-06-24T01:02:39;16.23;;;7.15;;
52480;SDS011;38393;52.404;13.532;2023-06-24T01:05:07;22.70;;;7.25;;
52480;SDS011;38393;52.404;13.532;2023-06-24T01:07:33;16.92;;;7.72;;
52480;SDS011;38393;52.404;13.532;2023-06-24T01:10:00;19.08;;;7.68;;
52480;SDS011;38393;52.404;13.532;2023-06-24T01:12:27;15.25;;;7.20;;
52480;SDS011;38393;52.404;13.532;2023-06-24T01:14:53;20.13;;;8.27;;
52480;SDS011;38393;52.404;13.532;2023-06-24T01:17:28;19.10;;;8.10;;
52480;SDS011;38393;52.404;13.532;2023-06-24T01:20:23;20.13;;;8.50;;
52480;SDS011;38393;52.404;13.532;2023-06-24T01:23:06;17.95;;;7.85;;
52480;SDS011;38393;52.404;13.532;2023-06-24T01:26:16;19.40;;;8.20;;
52480;SDS011;38393;52.404;13.532;2023-06-24T01:29:28;19.83;;;7.70;;
52480;SDS011;38393;52.404;13.532;2023-06-24T01:34:42;16.55;;;7.75;;
52480;SDS011;38393;52.404;13.532;2023-06-24T01:37:16;18.88;;;8.20;;
52480;SDS011;38393;52.404;13.532;2023-06-24T01:40:31;18.15;;;8.48;;
52480;SDS011;38393;52.404;13.532;2023-06-24T01:42:37;16.23;;;7.65;;
52480;SDS011;38393;52.404;13.532;2023-06-24T01:45:05;18.58;;;8.93;;
52480;SDS011;38393;52.404;13.532;2023-06-24T01:47:37;22.85;;;8.63;;
52480;SDS011;38393;52.404;13.532;2023-06-24T01:50:05;17.40;;;8.80;;
52480;SDS011;38393;52.404;13.532;2023-06-24T01:52:34;19.70;;;9.07;;
52480;SDS011;38393;52.404;13.532;2023-06-24T01:55:00;23.92;;;8.32;;
52480;SDS011;38393;52.404;13.532;2023-06-24T01:57:28;20.38;;;8.60;;
52480;SDS011;38393;52.404;13.532;2023-06-24T01:59:57;16.70;;;7.82;;
52480;SDS011;38393;52.404;13.532;2023-06-24T02:02:25;17.63;;;7.75;;
52480;SDS011;38393;52.404;13.532;2023-06-24T02:04:52;16.70;;;7.80;;
52480;SDS011;38393;52.404;13.532;2023-06-24T02:07:19;21.38;;;8.02;;
52480;SDS011;38393;52.404;13.532;2023-06-24T02:09:45;15.82;;;7.93;;
52480;SDS011;38393;52.404;13.532;2023-06-24T02:12:11;21.40;;;8.07;;
52480;SDS011;38393;52.404;13.532;2023-06-24T02:14:37;18.33;;;7.78;;
52480;SDS011;38393;52.404;13.532;2023-06-24T02:17:04;17.00;;;7.32;;
52480;SDS011;38393;52.404;13.532;2023-06-24T02:19:32;14.55;;;7.80;;
52480;SDS011;38393;52.404;13.532;2023-06-24T02:22:00;18.90;;;8.70;;
52480;SDS011;38393;52.404;13.532;2023-06-24T02:24:27;18.83;;;8.10;;
52480;SDS011;38393;52.404;13.532;2023-06-24T02:26:54;15.05;;;7.88;;
52480;SDS011;38393;52.404;13.532;2023-06-24T02:29:22;17.52;;;8.20;;
52480;SDS011;38393;52.404;13.532;2023-06-24T02:31:54;17.20;;;7.90;;
52480;SDS011;38393;52.404;13.532;2023-06-24T02:34:19;19.20;;;8.70;;
52480;SDS011;38393;52.404;13.532;2023-06-24T02:36:45;18.30;;;7.68;;
52480;SDS011;38393;52.404;13.532;2023-06-24T02:39:11;17.40;;;7.35;;
52480;SDS011;38393;52.404;13.532;2023-06-24T02:41:36;18.15;;;8.30;;
52480;SDS011;38393;52.404;13.532;2023-06-24T02:44:01;17.25;;;8.40;;
52480;SDS011;38393;52.404;13.532;2023-06-24T02:46:27;15.55;;;7.80;;
52480;SDS011;38393;52.404;13.532;2023-06-24T02:48:54;20.60;;;8.65;;
52480;SDS011;38393;52.404;13.532;2023-06-24T02:51:21;15.88;;;8.23;;
52480;SDS011;38393;52.404;13.532;2023-06-24T02:53:47;16.55;;;7.78;;
52480;SDS011;38393;52.404;13.532;2023-06-24T02:56:14;15.88;;;8.20;;
52480;SDS011;38393;52.404;13.532;2023-06-24T02:58:40;13.95;;;7.03;;
52480;SDS011;38393;52.404;13.532;2023-06-24T03:01:05;13.55;;;7.10;;
52480;SDS011;38393;52.404;13.532;2023-06-24T03:03:34;15.75;;;7.80;;
52480;SDS011;38393;52.404;13.532;2023-06-24T03:06:00;16.00;;;7.18;;
52480;SDS011;38393;52.404;13.532;2023-06-24T03:08:27;13.73;;;6.70;;
52480;SDS011;38393;52.404;13.532;2023-06-24T03:10:56;15.55;;;6.95;;
52480;SDS011;38393;52.404;13.532;2023-06-24T03:13:22;12.80;;;6.35;;
52480;SDS011;38393;52.404;13.532;2023-06-24T03:15:48;12.77;;;6.85;;
52480;SDS011;38393;52.404;13.532;2023-06-24T03:18:14;12.95;;;5.72;;
52480;SDS011;38393;52.404;13.532;2023-06-24T03:20:40;10.55;;;5.95;;
52480;SDS011;38393;52.404;13.532;2023-06-24T03:23:06;13.05;;;6.47;;
52480;SDS011;38393;52.404;13.532;2023-06-24T03:25:32;10.43;;;6.00;;
52480;SDS011;38393;52.404;13.532;2023-06-24T03:27:58;13.05;;;5.75;;
52480;SDS011;38393;52.404;13.532;2023-06-24T03:30:25;13.52;;;5.93;;
52480;SDS011;38393;52.404;13.532;2023-06-24T03:32:51;10.95;;;5.82;;
52480;SDS011;38393;52.404;13.532;2023-06-24T03:35:17;12.32;;;6.32;;
52480;SDS011;38393;52.404;13.532;2023-06-24T03:37:42;10.35;;;5.60;;
52480;SDS011;38393;52.404;13.532;2023-06-24T03:40:08;12.25;;;5.78;;
52480;SDS011;38393;52.404;13.532;2023-06-24T03:42:33;10.50;;;5.20;;
52480;SDS011;38393;52.404;13.532;2023-06-24T03:44:59;15.10;;;5.88;;
52480;SDS011;38393;52.404;13.532;2023-06-24T03:47:24;9.25;;;5.32;;
52480;SDS011;38393;52.404;13.532;2023-06-24T03:49:50;11.07;;;5.82;;
52480;SDS011;38393;52.404;13.532;2023-06-24T03:52:16;12.52;;;5.30;;
52480;SDS011;38393;52.404;13.532;2023-06-24T03:54:42;17.67;;;5.75;;
52480;SDS011;38393;52.404;13.532;2023-06-24T03:57:08;10.45;;;5.22;;
52480;SDS011;38393;52.404;13.532;2023-06-24T03:59:33;12.52;;;6.07;;
52480;SDS011;38393;52.404;13.532;2023-06-24T04:01:59;9.95;;;4.93;;
52480;SDS011;38393;52.404;13.532;2023-06-24T04:04:25;10.10;;;5.07;;
52480;SDS011;38393;52.404;13.532;2023-06-24T04:06:51;12.02;;;6.03;;
52480;SDS011;38393;52.404;13.532;2023-06-24T04:09:16;11.07;;;4.82;;
52480;SDS011;38393;52.404;13.532;2023-06-24T04:11:42;13.52;;;5.30;;
52480;SDS011;38393;52.404;13.532;2023-06-24T04:14:07;12.73;;;5.35;;
52480;SDS011;38393;52.404;13.532;2023-06-24T04:16:34;12.50;;;6.00;;
52480;SDS011;38393;52.404;13.532;2023-06-24T04:19:00;11.52;;;5.38;;
52480;SDS011;38393;52.404;13.532;2023-06-24T04:21:26;10.40;;;4.97;;
52480;SDS011;38393;52.404;13.532;2023-06-24T04:23:52;12.48;;;5.93;;
52480;SDS011;38393;52.404;13.532;2023-06-24T04:26:17;10.63;;;5.88;;
52480;SDS011;38393;52.404;13.532;2023-06-24T04:28:42;10.77;;;4.88;;
52480;SDS011;38393;52.404;13.532;2023-06-24T04:31:08;12.38;;;5.30;;
52480;SDS011;38393;52.404;13.532;2023-06-24T04:33:33;10.30;;;5.55;;
52480;SDS011;38393;52.404;13.532;2023-06-24T04:35:59;12.63;;;5.10;;
52480;SDS011;38393;52.404;13.532;2023-06-24T04:38:25;10.45;;;5.38;;
52480;SDS011;38393;52.404;13.532;2023-06-24T04:40:50;15.02;;;5.15;;
52480;SDS011;38393;52.404;13.532;2023-06-24T04:43:16;8.38;;;4.68;;
52480;SDS011;38393;52.404;13.532;2023-06-24T04:45:41;11.40;;;5.25;;
52480;SDS011;38393;52.404;13.532;2023-06-24T04:48:07;11.52;;;5.38;;
52480;SDS011;38393;52.404;13.532;2023-06-24T04:50:32;8.80;;;4.43;;
52480;SDS011;38393;52.404;13.532;2023-06-24T04:52:58;8.73;;;5.05;;
52480;SDS011;38393;52.404;13.532;2023-06-24T04:55:24;10.70;;;5.00;;
52480;SDS011;38393;52.404;13.532;2023-06-24T04:57:49;10.32;;;5.20;;
52480;SDS011;38393;52.404;13.532;2023-06-24T05:00:15;10.32;;;5.38;;
52480;SDS011;38393;52.404;13.532;2023-06-24T05:02:40;12.05;;;5.13;;
52480;SDS011;38393;52.404;13.532;2023-06-24T05:05:06;9.80;;;5.22;;
52480;SDS011;38393;52.404;13.532;2023-06-24T05:07:32;8.57;;;4.88;;
52480;SDS011;38393;52.404;13.532;2023-06-24T05:09:57;10.38;;;4.68;;
52480;SDS011;38393;52.404;13.532;2023-06-24T05:12:23;8.32;;;4.38;;
52480;SDS011;38393;52.404;13.532;2023-06-24T05:14:51;10.48;;;4.93;;
52480;SDS011;38393;52.404;13.532;2023-06-24T05:17:17;9.20;;;4.60;;
52480;SDS011;38393;52.404;13.532;2023-06-24T05:19:43;9.30;;;5.30;;
52480;SDS011;38393;52.404;13.532;2023-06-24T05:22:09;9.10;;;4.50;;
52480;SDS011;38393;52.404;13.532;2023-06-24T05:24:34;8.15;;;4.55;;
52480;SDS011;38393;52.404;13.532;2023-06-24T05:27:03;12.02;;;5.13;;
52480;SDS011;38393;52.404;13.532;2023-06-24T05:29:30;10.90;;;4.93;;
52480;SDS011;38393;52.404;13.532;2023-06-24T05:31:56;8.63;;;4.53;;
52480;SDS011;38393;52.404;13.532;2023-06-24T05:34:21;8.25;;;4.50;;
52480;SDS011;38393;52.404;13.532;2023-06-24T05:36:47;10.02;;;4.72;;
52480;SDS011;38393;52.404;13.532;2023-06-24T05:39:12;8.23;;;4.43;;
52480;SDS011;38393;52.404;13.532;2023-06-24T05:41:38;9.55;;;4.70;;
52480;SDS011;38393;52.404;13.532;2023-06-24T05:44:05;8.90;;;4.55;;
52480;SDS011;38393;52.404;13.532;2023-06-24T05:46:32;7.22;;;4.00;;
52480;SDS011;38393;52.404;13.532;2023-06-24T05:48:58;10.23;;;4.60;;
52480;SDS011;38393;52.404;13.532;2023-06-24T05:51:24;9.35;;;4.43;;
52480;SDS011;38393;52.404;13.532;2023-06-24T05:53:49;8.82;;;4.30;;
52480;SDS011;38393;52.404;13.532;2023-06-24T05:56:15;11.45;;;4.72;;
52480;SDS011;38393;52.404;13.532;2023-06-24T05:58:40;10.20;;;4.70;;
52480;SDS011;38393;52.404;13.532;2023-06-24T06:01:07;7.70;;;4.35;;
52480;SDS011;38393;52.404;13.532;2023-06-24T06:03:34;8.75;;;4.50;;
52480;SDS011;38393;52.404;13.532;2023-06-24T06:05:59;8.98;;;4.47;;
52480;SDS011;38393;52.404;13.532;2023-06-24T06:08:25;7.10;;;4.20;;
52480;SDS011;38393;52.404;13.532;2023-06-24T06:10:50;8.77;;;4.38;;
52480;SDS011;38393;52.404;13.532;2023-06-24T06:13:16;8.77;;;4.30;;
52480;SDS011;38393;52.404;13.532;2023-06-24T06:15:41;7.50;;;4.00;;
52480;SDS011;38393;52.404;13.532;2023-06-24T06:18:07;7.63;;;4.32;;
52480;SDS011;38393;52.404;13.532;2023-06-24T06:20:32;8.85;;;4.03;;
52480;SDS011;38393;52.404;13.532;2023-06-24T06:22:58;10.07;;;4.50;;
52480;SDS011;38393;52.404;13.532;2023-06-24T06:25:23;7.72;;;3.72;;
52480;SDS011;38393;52.404;13.532;2023-06-24T06:27:49;7.60;;;3.65;;
52480;SDS011;38393;52.404;13.532;2023-06-24T06:30:14;11.10;;;3.92;;
52480;SDS011;38393;52.404;13.532;2023-06-24T06:32:40;7.20;;;3.80;;
52480;SDS011;38393;52.404;13.532;2023-06-24T06:35:06;5.32;;;3.42;;
52480;SDS011;38393;52.404;13.532;2023-06-24T06:37:31;5.45;;;3.53;;
52480;SDS011;38393;52.404;13.532;2023-06-24T06:39:57;6.97;;;3.65;;
52480;SDS011;38393;52.404;13.532;2023-06-24T06:42:22;8.68;;;3.90;;
52480;SDS011;38393;52.404;13.532;2023-06-24T06:44:48;9.05;;;3.60;;
52480;SDS011;38393;52.404;13.532;2023-06-24T06:47:13;10.35;;;3.92;;
52480;SDS011;38393;52.404;13.532;2023-06-24T06:49:39;6.32;;;3.78;;
52480;SDS011;38393;52.404;13.532;2023-06-24T06:52:05;7.15;;;3.67;;
52480;SDS011;38393;52.404;13.532;2023-06-24T06:54:30;8.00;;;3.65;;
52480;SDS011;38393;52.404;13.532;2023-06-24T06:57:00;7.05;;;3.53;;
52480;SDS011;38393;52.404;13.532;2023-06-24T06:59:26;10.85;;;4.03;;
52480;SDS011;38393;52.404;13.532;2023-06-24T07:01:51;6.95;;;3.95;;
52480;SDS011;38393;52.404;13.532;2023-06-24T07:04:17;6.22;;;3.55;;
52480;SDS011;38393;52.404;13.532;2023-06-24T07:06:42;7.35;;;3.72;;
52480;SDS011;38393;52.404;13.532;2023-06-24T07:09:08;6.82;;;3.60;;
52480;SDS011;38393;52.404;13.532;2023-06-24T07:11:33;8.15;;;3.72;;
52480;SDS011;38393;52.404;13.532;2023-06-24T07:13:58;6.97;;;3.63;;
52480;SDS011;38393;52.404;13.532;2023-06-24T07:16:24;7.97;;;3.55;;
52480;SDS011;38393;52.404;13.532;2023-06-24T07:18:49;4.88;;;3.05;;
52480;SDS011;38393;52.404;13.532;2023-06-24T07:21:15;8.63;;;3.63;;
52480;SDS011;38393;52.404;13.532;2023-06-24T07:23:40;6.20;;;2.97;;
52480;SDS011;38393;52.404;13.532;2023-06-24T07:26:06;5.32;;;2.92;;
52480;SDS011;38393;52.404;13.532;2023-06-24T07:28:32;7.05;;;3.10;;
52480;SDS011;38393;52.404;13.532;2023-06-24T07:30:57;5.25;;;2.70;;
52480;SDS011;38393;52.404;13.532;2023-06-24T07:33:23;5.63;;;2.90;;
52480;SDS011;38393;52.404;13.532;2023-06-24T07:35:48;5.88;;;3.22;;
52480;SDS011;38393;52.404;13.532;2023-06-24T07:38:14;7.75;;;3.13;;
52480;SDS011;38393;52.404;13.532;2023-06-24T07:40:39;5.60;;;3.10;;
52480;SDS011;38393;52.404;13.532;2023-06-24T07:43:04;6.40;;;2.92;;
52480;SDS011;38393;52.404;13.532;2023-06-24T07:45:30;5.03;;;3.00;;
52480;SDS011;38393;52.404;13.532;2023-06-24T07:47:55;5.05;;;2.92;;
52480;SDS011;38393;52.404;13.532;2023-06-24T07:50:21;6.22;;;3.40;;
52480;SDS011;38393;52.404;13.532;2023-06-24T07:52:46;8.02;;;2.95;;
52480;SDS011;38393;52.404;13.532;2023-06-24T07:55:12;5.07;;;2.85;;
52480;SDS011;38393;52.404;13.532;2023-06-24T07:57:37;5.43;;;2.90;;
52480;SDS011;38393;52.404;13.532;2023-06-24T08:00:03;6.13;;;3.10;;
52480;SDS011;38393;52.404;13.532;2023-06-24T08:02:36;5.65;;;2.85;;
52480;SDS011;38393;52.404;13.532;2023-06-24T08:05:01;3.65;;;2.17;;
52480;SDS011;38393;52.404;13.532;2023-06-24T08:07:27;4.63;;;2.28;;
52480;SDS011;38393;52.404;13.532;2023-06-24T08:09:52;6.40;;;2.80;;
52480;SDS011;38393;52.404;13.532;2023-06-24T08:12:17;4.18;;;2.60;;
52480;SDS011;38393;52.404;13.532;2023-06-24T08:14:43;5.15;;;2.42;;
52480;SDS011;38393;52.404;13.532;2023-06-24T08:17:08;3.95;;;2.50;;
52480;SDS011;38393;52.404;13.532;2023-06-24T08:19:34;4.35;;;2.50;;
52480;SDS011;38393;52.404;13.532;2023-06-24T08:21:59;4.38;;;2.55;;
52480;SDS011;38393;52.404;13.532;2023-06-24T08:24:25;3.67;;;2.40;;
52480;SDS011;38393;52.404;13.532;2023-06-24T08:26:50;3.85;;;2.15;;
52480;SDS011;38393;52.404;13.532;2023-06-24T08:29:18;6.25;;;3.05;;
52480;SDS011;38393;52.404;13.532;2023-06-24T08:31:43;5.68;;;2.22;;
52480;SDS011;38393;52.404;13.532;2023-06-24T08:34:09;4.05;;;2.10;;
52480;SDS011;38393;52.404;13.532;2023-06-24T08:36:34;5.32;;;2.83;;
52480;SDS011;38393;52.404;13.532;2023-06-24T08:39:01;6.55;;;2.28;;
52480;SDS011;38393;52.404;13.532;2023-06-24T08:41:26;3.95;;;2.30;;
52480;SDS011;38393;52.404;13.532;2023-06-24T08:43:52;4.65;;;2.10;;
52480;SDS011;38393;52.404;13.532;2023-06-24T08:46:19;3.95;;;2.30;;
52480;SDS011;38393;52.404;13.532;2023-06-24T08:48:46;4.78;;;2.33;;
52480;SDS011;38393;52.404;13.532;2023-06-24T08:51:13;4.35;;;2.30;;
52480;SDS011;38393;52.404;13.532;2023-06-24T08:53:43;3.60;;;2.30;;
52480;SDS011;38393;52.404;13.532;2023-06-24T08:56:09;3.80;;;2.10;;
52480;SDS011;38393;52.404;13.532;2023-06-24T08:58:35;6.90;;;2.63;;
52480;SDS011;38393;52.404;13.532;2023-06-24T09:01:01;3.58;;;2.40;;
52480;SDS011;38393;52.404;13.532;2023-06-24T09:03:27;3.55;;;2.38;;
52480;SDS011;38393;52.404;13.532;2023-06-24T09:05:53;4.35;;;2.63;;
52480;SDS011;38393;52.404;13.532;2023-06-24T09:08:18;4.50;;;2.55;;
52480;SDS011;38393;52.404;13.532;2023-06-24T09:10:46;4.55;;;1.98;;
52480;SDS011;38393;52.404;13.532;2023-06-24T09:13:19;4.65;;;2.35;;
52480;SDS011;38393;52.404;13.532;2023-06-24T09:15:44;4.53;;;2.30;;
52480;SDS011;38393;52.404;13.532;2023-06-24T09:18:10;3.97;;;2.20;;
52480;SDS011;38393;52.404;13.532;2023-06-24T09:20:36;5.13;;;2.58;;
52480;SDS011;38393;52.404;13.532;2023-06-24T09:23:06;3.28;;;2.40;;
52480;SDS011;38393;52.404;13.532;2023-06-24T09:25:31;3.53;;;2.17;;
52480;SDS011;38393;52.404;13.532;2023-06-24T09:28:01;4.18;;;2.17;;
52480;SDS011;38393;52.404;13.532;2023-06-24T09:30:27;3.72;;;2.08;;
52480;SDS011;38393;52.404;13.532;2023-06-24T09:32:53;4.25;;;2.40;;
52480;SDS011;38393;52.404;13.532;2023-06-24T09:35:20;3.33;;;2.20;;
52480;SDS011;38393;52.404;13.532;2023-06-24T09:37:54;3.95;;;2.58;;
52480;SDS011;38393;52.404;13.532;2023-06-24T09:40:21;3.40;;;2.25;;
52480;SDS011;38393;52.404;13.532;2023-06-24T09:45:21;3.97;;;2.22;;
52480;SDS011;38393;52.404;13.532;2023-06-24T09:47:56;3.97;;;2.25;;
52480;SDS011;38393;52.404;13.532;2023-06-24T09:50:22;3.58;;;2.30;;
52480;SDS011;38393;52.404;13.532;2023-06-24T09:52:49;6.70;;;2.47;;
52480;SDS011;38393;52.404;13.532;2023-06-24T09:55:16;3.33;;;2.08;;
52480;SDS011;38393;52.404;13.532;2023-06-24T09:57:46;4.72;;;2.38;;
52480;SDS011;38393;52.404;13.532;2023-06-24T10:00:17;5.45;;;2.40;;
52480;SDS011;38393;52.404;13.532;2023-06-24T10:02:44;3.67;;;2.00;;
52480;SDS011;38393;52.404;13.532;2023-06-24T10:05:14;3.60;;;2.00;;
52480;SDS011;38393;52.404;13.532;2023-06-24T10:07:40;5.75;;;2.20;;
52480;SDS011;38393;52.404;13.532;2023-06-24T10:10:07;4.60;;;2.20;;
52480;SDS011;38393;52.404;13.532;2023-06-24T10:12:34;3.95;;;2.03;;
52480;SDS011;38393;52.404;13.532;2023-06-24T10:15:00;2.92;;;1.80;;
52480;SDS011;38393;52.404;13.532;2023-06-24T10:17:26;3.47;;;2.25;;
52480;SDS011;38393;52.404;13.532;2023-06-24T10:19:52;3.85;;;2.20;;
52480;SDS011;38393;52.404;13.532;2023-06-24T10:22:21;4.65;;;2.28;;
52480;SDS011;38393;52.404;13.532;2023-06-24T10:24:48;3.67;;;2.05;;
52480;SDS011;38393;52.404;13.532;2023-06-24T10:27:16;4.43;;;2.10;;
52480;SDS011;38393;52.404;13.532;2023-06-24T10:29:46;4.30;;;2.33;;
52480;SDS011;38393;52.404;13.532;2023-06-24T10:32:13;3.58;;;2.38;;
52480;SDS011;38393;52.404;13.532;2023-06-24T10:34:39;3.92;;;2.30;;
52480;SDS011;38393;52.404;13.532;2023-06-24T10:39:35;5.00;;;1.85;;
52480;SDS011;38393;52.404;13.532;2023-06-24T10:42:24;3.17;;;1.80;;
52480;SDS011;38393;52.404;13.532;2023-06-24T10:47:22;2.67;;;1.73;;
52480;SDS011;38393;52.404;13.532;2023-06-24T10:49:49;3.05;;;2.00;;
52480;SDS011;38393;52.404;13.532;2023-06-24T10:52:15;3.60;;;2.10;;
52480;SDS011;38393;52.404;13.532;2023-06-24T10:54:44;5.95;;;2.10;;
52480;SDS011;38393;52.404;13.532;2023-06-24T10:57:10;2.85;;;1.95;;
52480;SDS011;38393;52.404;13.532;2023-06-24T10:59:42;4.53;;;1.98;;
52480;SDS011;38393;52.404;13.532;2023-06-24T11:02:22;2.72;;;1.80;;
52480;SDS011;38393;52.404;13.532;2023-06-24T11:04:50;4.25;;;2.10;;
52480;SDS011;38393;52.404;13.532;2023-06-24T11:07:17;4.10;;;1.92;;
52480;SDS011;38393;52.404;13.532;2023-06-24T11:09:48;3.40;;;1.90;;
52480;SDS011;38393;52.404;13.532;2023-06-24T11:12:18;2.97;;;1.80;;
52480;SDS011;38393;52.404;13.532;2023-06-24T11:14:44;3.30;;;2.20;;
52480;SDS011;38393;52.404;13.532;2023-06-24T11:17:10;3.47;;;2.22;;
52480;SDS011;38393;52.404;13.532;2023-06-24T11:19:36;3.45;;;2.13;;
52480;SDS011;38393;52.404;13.532;2023-06-24T11:22:04;3.55;;;2.10;;
52480;SDS011;38393;52.404;13.532;2023-06-24T11:24:31;3.53;;;1.90;;
52480;SDS011;38393;52.404;13.532;2023-06-24T11:26:57;3.13;;;2.00;;
52480;SDS011;38393;52.404;13.532;2023-06-24T11:29:23;4.22;;;1.88;;
52480;SDS011;38393;52.404;13.532;2023-06-24T11:31:49;3.92;;;2.13;;
52480;SDS011;38393;52.404;13.532;2023-06-24T11:34:15;3.42;;;2.10;;
52480;SDS011;38393;52.404;13.532;2023-06-24T11:36:41;2.42;;;1.63;;
52480;SDS011;38393;52.404;13.532;2023-06-24T11:39:06;2.88;;;1.83;;
52480;SDS011;38393;52.404;13.532;2023-06-24T11:41:32;4.03;;;2.22;;
52480;SDS011;38393;52.404;13.532;2023-06-24T11:43:57;3.53;;;1.83;;
52480;SDS011;38393;52.404;13.532;2023-06-24T11:46:24;4.22;;;2.17;;
52480;SDS011;38393;52.404;13.532;2023-06-24T11:49:03;3.33;;;2.15;;
52480;SDS011;38393;52.404;13.532;2023-06-24T11:51:29;4.18;;;2.20;;
52480;SDS011;38393;52.404;13.532;2023-06-24T11:53:58;3.25;;;2.03;;
52480;SDS011;38393;52.404;13.532;2023-06-24T11:56:34;5.05;;;2.20;;
52480;SDS011;38393;52.404;13.532;2023-06-24T11:59:04;5.28;;;2.70;;
52480;SDS011;38393;52.404;13.532;2023-06-24T12:01:31;5.07;;;2.22;;
52480;SDS011;38393;52.404;13.532;2023-06-24T12:04:12;3.63;;;2.13;;
52480;SDS011;38393;52.404;13.532;2023-06-24T12:06:39;3.75;;;2.30;;
52480;SDS011;38393;52.404;13.532;2023-06-24T12:09:06;3.97;;;2.30;;
52480;SDS011;38393;52.404;13.532;2023-06-24T12:11:32;2.83;;;1.80;;
52480;SDS011;38393;52.404;13.532;2023-06-24T12:13:58;2.97;;;2.13;;
52480;SDS011;38393;52.404;13.532;2023-06-24T12:16:23;3.30;;;2.15;;
52480;SDS011;38393;52.404;13.532;2023-06-24T12:18:49;2.33;;;1.70;;
52480;SDS011;38393;52.404;13.532;2023-06-24T12:21:15;3.92;;;1.90;;
52480;SDS011;38393;52.404;13.532;2023-06-24T12:23:40;2.72;;;1.83;;
52480;SDS011;38393;52.404;13.532;2023-06-24T12:26:06;2.85;;;1.88;;
52480;SDS011;38393;52.404;13.532;2023-06-24T12:28:31;3.03;;;1.90;;
52480;SDS011;38393;52.404;13.532;2023-06-24T12:30:57;2.97;;;1.80;;
52480;SDS011;38393;52.404;13.532;2023-06-24T12:33:23;2.47;;;1.70;;
52480;SDS011;38393;52.404;13.532;2023-06-24T12:35:48;4.00;;;1.77;;
52480;SDS011;38393;52.404;13.532;2023-06-24T12:38:13;3.90;;;2.22;;
52480;SDS011;38393;52.404;13.532;2023-06-24T12:40:40;3.72;;;2.15;;
52480;SDS011;38393;52.404;13.532;2023-06-24T12:43:06;3.70;;;2.10;;
52480;SDS011;38393;52.404;13.532;2023-06-24T12:45:32;4.47;;;1.90;;
52480;SDS011;38393;52.404;13.532;2023-06-24T12:47:57;3.97;;;2.17;;
52480;SDS011;38393;52.404;13.532;2023-06-24T12:50:24;3.35;;;1.90;;
52480;SDS011;38393;52.404;13.532;2023-06-24T12:52:49;3.20;;;1.73;;
52480;SDS011;38393;52.404;13.532;2023-06-24T12:55:15;4.20;;;2.42;;
52480;SDS011;38393;52.404;13.532;2023-06-24T12:57:40;2.78;;;1.98;;
52480;SDS011;38393;52.404;13.532;2023-06-24T13:00:06;3.10;;;2.03;;
52480;SDS011;38393;52.404;13.532;2023-06-24T13:02:32;6.28;;;2.38;;
52480;SDS011;38393;52.404;13.532;2023-06-24T13:04:58;3.15;;;1.98;;
52480;SDS011;38393;52.404;13.532;2023-06-24T13:07:24;2.95;;;1.80;;
52480;SDS011;38393;52.404;13.532;2023-06-24T13:09:49;3.72;;;1.95;;
52480;SDS011;38393;52.404;13.532;2023-06-24T13:12:15;3.25;;;1.70;;
52480;SDS011;38393;52.404;13.532;2023-06-24T13:14:40;4.07;;;2.40;;
52480;SDS011;38393;52.404;13.532;2023-06-24T13:17:06;2.85;;;1.98;;
52480;SDS011;38393;52.404;13.532;2023-06-24T13:19:31;4.35;;;2.00;;
52480;SDS011;38393;52.404;13.532;2023-06-24T13:21:57;3.95;;;1.95;;
52480;SDS011;38393;52.404;13.532;2023-06-24T13:24:23;5.60;;;1.92;;
52480;SDS011;38393;52.404;13.532;2023-06-24T13:26:50;2.70;;;2.05;;
52480;SDS011;38393;52.404;13.532;2023-06-24T13:29:16;3.50;;;1.95;;
52480;SDS011;38393;52.404;13.532;2023-06-24T13:31:41;3.88;;;2.30;;
52480;SDS011;38393;52.404;13.532;2023-06-24T13:34:07;2.95;;;2.15;;
52480;SDS011;38393;52.404;13.532;2023-06-24T13:36:33;4.05;;;2.38;;
52480;SDS011;38393;52.404;13.532;2023-06-24T13:39:02;4.53;;;2.40;;
52480;SDS011;38393;52.404;13.532;2023-06-24T13:41:28;3.28;;;1.88;;
52480;SDS011;38393;52.404;13.532;2023-06-24T13:43:56;4.50;;;1.98;;
52480;SDS011;38393;52.404;13.532;2023-06-24T13:46:22;4.35;;;2.15;;
52480;SDS011;38393;52.404;13.532;2023-06-24T13:48:48;3.92;;;2.30;;
52480;SDS011;38393;52.404;13.532;2023-06-24T13:51:15;4.20;;;2.40;;
52480;SDS011;38393;52.404;13.532;2023-06-24T13:53:41;4.43;;;2.22;;
52480;SDS011;38393;52.404;13.532;2023-06-24T13:56:06;3.53;;;1.90;;
52480;SDS011;38393;52.404;13.532;2023-06-24T13:58:32;3.30;;;1.95;;
52480;SDS011;38393;52.404;13.532;2023-06-24T14:00:57;3.42;;;2.10;;
52480;SDS011;38393;52.404;13.532;2023-06-24T14:03:23;4.80;;;2.05;;
52480;SDS011;38393;52.404;13.532;2023-06-24T14:05:48;3.20;;;1.90;;
52480;SDS011;38393;52.404;13.532;2023-06-24T14:08:14;3.72;;;1.95;;
52480;SDS011;38393;52.404;13.532;2023-06-24T14:10:39;2.58;;;1.80;;
52480;SDS011;38393;52.404;13.532;2023-06-24T14:13:05;3.92;;;2.22;;
52480;SDS011;38393;52.404;13.532;2023-06-24T14:15:30;3.72;;;2.10;;
52480;SDS011;38393;52.404;13.532;2023-06-24T14:17:56;3.70;;;2.20;;
52480;SDS011;38393;52.404;13.532;2023-06-24T14:20:21;3.95;;;2.50;;
52480;SDS011;38393;52.404;13.532;2023-06-24T14:22:47;2.90;;;1.70;;
52480;SDS011;38393;52.404;13.532;2023-06-24T20:41:29;8.68;;;4.38;;
52480;SDS011;38393;52.404;13.532;2023-06-24T20:43:57;7.82;;;4.18;;
52480;SDS011;38393;52.404;13.532;2023-06-24T20:46:23;9.43;;;5.00;;
52480;SDS011;38393;52.404;13.532;2023-06-24T20:48:50;9.98;;;4.72;;
52480;SDS011;38393;52.404;13.532;2023-06-24T20:51:15;11.27;;;4.90;;
52480;SDS011;38393;52.404;13.532;2023-06-24T20:53:41;10.18;;;4.90;;
52480;SDS011;38393;52.404;13.532;2023-06-24T20:56:08;8.57;;;4.75;;